Time;durP1;ratioP1;P1;durP2;ratioP2;P2;SDS_P1;SDS_P2;PMS_P1;PMS_P2;Temp;Humidity;BMP_temperature;BMP_pressure;BME280_temperature;BME280_humidity;BME280_pressure;Samples;Min_cycle;Max_cycle;Signal;HPM_P1;HPM_P2
2021/03/09 00:00:00;;;;;;;50.40;23.10;;;6.10;99.90;;;;;;5017454;28;20649;-80
2021/03/09 00:02:26;;;;;;;46.80;22.07;;;6.10;99.90;;;;;;5016903;28;20209;-79
2021/03/09 00:04:53;;;;;;;46.87;21.47;;;6.10;99.90;;;;;;5016402;28;20726;-80
2021/03/09 00:07:19;;;;;;;48.87;21.43;;;6.10;99.90;;;;;;5015826;28;20741;-79
2021/03/09 00:09:46;;;;;;;50.53;21.40;;;6.10;99.90;;;;;;5015847;28;20226;-80
2021/03/09 00:12:13;;;;;;;44.10;21.23;;;6.20;99.90;;;;;;5015248;28;20260;-80
2021/03/09 00:14:39;;;;;;;53.10;23.20;;;6.20;99.90;;;;;;5019703;28;20204;-80
2021/03/09 00:17:06;;;;;;;47.87;22.43;;;6.10;99.90;;;;;;5017482;28;20277;-82
2021/03/09 00:19:32;;;;;;;49.63;21.60;;;6.20;99.90;;;;;;5016926;28;20249;-80
2021/03/09 00:21:59;;;;;;;49.57;21.97;;;6.20;99.90;;;;;;5016968;28;20349;-80
2021/03/09 00:24:25;;;;;;;47.37;22.40;;;6.10;99.90;;;;;;5015511;28;20280;-80
2021/03/09 00:26:52;;;;;;;46.40;22.17;;;6.00;99.90;;;;;;5015280;28;20573;-80
2021/03/09 00:29:19;;;;;;;48.90;22.93;;;6.00;99.90;;;;;;5014151;28;20210;-80
2021/03/09 00:31:46;;;;;;;46.87;21.53;;;6.10;99.90;;;;;;5019127;28;20201;-80
2021/03/09 00:34:12;;;;;;;46.73;22.30;;;6.10;99.90;;;;;;5016728;28;20299;-79
2021/03/09 00:36:38;;;;;;;47.23;22.10;;;6.10;99.90;;;;;;5016917;28;20203;-80
2021/03/09 00:39:05;;;;;;;44.77;21.90;;;6.10;99.90;;;;;;5017435;28;20294;-81
2021/03/09 00:41:32;;;;;;;44.07;21.77;;;6.00;99.90;;;;;;5016695;28;20230;-80
2021/03/09 00:43:58;;;;;;;49.10;22.47;;;6.00;99.90;;;;;;5018157;28;20228;-80
2021/03/09 00:46:25;;;;;;;42.83;21.03;;;6.00;99.90;;;;;;5015653;28;20658;-79
2021/03/09 00:48:52;;;;;;;48.77;21.33;;;6.00;99.90;;;;;;5015805;28;20235;-79
2021/03/09 00:51:18;;;;;;;45.60;21.37;;;6.00;99.90;;;;;;5016055;28;20202;-80
2021/03/09 00:53:44;;;;;;;43.07;21.13;;;6.00;99.90;;;;;;5014999;28;20219;-80
2021/03/09 00:56:11;;;;;;;44.07;21.23;;;6.00;99.90;;;;;;5017255;28;20290;-80
2021/03/09 00:58:37;;;;;;;50.90;21.53;;;6.00;99.90;;;;;;5016828;28;20239;-80
2021/03/09 01:01:03;;;;;;;48.00;22.70;;;5.90;99.90;;;;;;5017304;28;20242;-80
2021/03/09 01:03:30;;;;;;;50.87;22.43;;;5.90;99.90;;;;;;5015720;28;20223;-79
2021/03/09 01:05:57;;;;;;;47.43;22.50;;;5.90;99.90;;;;;;5016094;28;20207;-80
2021/03/09 01:08:23;;;;;;;48.93;21.33;;;5.90;99.90;;;;;;5015081;28;20322;-79
2021/03/09 01:10:49;;;;;;;48.73;23.40;;;5.90;99.90;;;;;;5014286;28;20195;-80
2021/03/09 01:13:16;;;;;;;48.77;22.57;;;5.80;99.90;;;;;;5016487;28;20203;-80
2021/03/09 01:15:42;;;;;;;51.17;22.73;;;5.80;99.90;;;;;;5016188;28;20650;-80
2021/03/09 01:18:09;;;;;;;54.00;22.93;;;5.80;99.90;;;;;;5017471;28;20204;-79
2021/03/09 01:20:36;;;;;;;50.40;22.63;;;5.70;99.90;;;;;;5015254;28;20289;-79
2021/03/09 01:23:02;;;;;;;48.90;23.70;;;5.70;99.90;;;;;;5015374;28;20310;-78
2021/03/09 01:25:28;;;;;;;50.83;23.20;;;5.60;99.90;;;;;;5014131;28;20202;-78
2021/03/09 01:27:55;;;;;;;51.53;24.30;;;5.60;99.90;;;;;;5013863;28;20228;-79
2021/03/09 01:30:22;;;;;;;53.50;23.73;;;5.60;99.90;;;;;;5015989;28;20226;-78
2021/03/09 01:32:48;;;;;;;55.60;24.67;;;5.60;99.90;;;;;;5016027;28;20202;-78
2021/03/09 01:35:15;;;;;;;51.07;23.53;;;5.60;99.90;;;;;;5017660;28;20294;-78
2021/03/09 01:37:42;;;;;;;56.50;23.57;;;5.60;99.90;;;;;;5013725;28;20209;-78
2021/03/09 01:40:11;;;;;;;58.13;25.77;;;5.60;99.90;;;;;;5013115;28;20623;-78
2021/03/09 01:42:37;;;;;;;60.03;25.27;;;5.60;99.90;;;;;;5017358;28;20198;-79
2021/03/09 01:45:06;;;;;;;62.37;26.33;;;5.50;99.90;;;;;;5014898;28;20203;-79
2021/03/09 01:47:33;;;;;;;55.63;25.07;;;5.60;99.90;;;;;;5015852;28;20203;-79
2021/03/09 01:50:00;;;;;;;56.73;25.00;;;5.50;99.90;;;;;;5014241;28;20301;-79
2021/03/09 01:52:27;;;;;;;59.27;24.70;;;5.50;99.90;;;;;;5014342;28;20277;-78
2021/03/09 01:54:54;;;;;;;62.23;25.83;;;5.50;99.90;;;;;;5013105;28;20206;-78
2021/03/09 01:57:21;;;;;;;60.73;26.43;;;5.50;99.90;;;;;;5015362;28;20649;-78
2021/03/09 01:59:50;;;;;;;56.93;25.47;;;5.40;99.90;;;;;;5024049;28;20216;-78
2021/03/09 02:02:16;;;;;;;55.00;22.97;;;5.40;99.90;;;;;;5015056;28;20202;-78
2021/03/09 02:04:43;;;;;;;62.60;26.47;;;5.30;99.90;;;;;;5015899;28;20568;-78
2021/03/09 02:07:09;;;;;;;55.37;24.70;;;5.40;99.90;;;;;;5013647;28;20199;-79
2021/03/09 02:09:36;;;;;;;57.50;26.13;;;5.50;99.90;;;;;;5015300;28;20682;-79
2021/03/09 02:12:11;;;;;;;60.67;26.20;;;5.50;99.90;;;;;;5013577;28;20294;-79
2021/03/09 02:14:47;;;;;;;57.47;25.03;;;5.50;99.90;;;;;;5013768;28;20672;-79
2021/03/09 02:17:19;;;;;;;56.50;25.13;;;5.40;99.90;;;;;;5012626;28;20244;-79
2021/03/09 02:20:20;;;;;;;57.23;25.70;;;5.40;99.90;;;;;;5016999;28;20206;-79
2021/03/09 02:23:17;;;;;;;53.37;24.87;;;5.40;99.90;;;;;;5015841;28;20259;-79
2021/03/09 02:26:15;;;;;;;55.67;24.47;;;5.40;99.90;;;;;;5013892;28;20664;-79
2021/03/09 02:28:48;;;;;;;63.20;25.07;;;5.40;99.90;;;;;;5012903;28;20611;-79
2021/03/09 02:31:16;;;;;;;58.90;25.60;;;5.30;99.90;;;;;;5013363;28;20207;-78
2021/03/09 02:33:47;;;;;;;65.27;27.27;;;5.30;99.90;;;;;;5014921;28;20217;-78
2021/03/09 02:36:16;;;;;;;61.97;24.40;;;5.30;99.90;;;;;;5015083;28;20286;-79
2021/03/09 02:38:49;;;;;;;58.80;25.27;;;5.40;99.90;;;;;;5013747;28;20290;-79
2021/03/09 02:41:17;;;;;;;52.10;23.37;;;5.40;99.90;;;;;;5013758;28;20237;-79
2021/03/09 02:43:47;;;;;;;59.37;24.63;;;5.30;99.90;;;;;;5012913;28;20265;-79
2021/03/09 02:46:16;;;;;;;56.37;25.67;;;5.30;99.90;;;;;;5013000;28;20248;-79
2021/03/09 02:48:42;;;;;;;53.20;24.73;;;5.30;99.90;;;;;;5017154;28;20203;-79
2021/03/09 02:51:10;;;;;;;56.07;25.67;;;5.30;99.90;;;;;;5013612;28;20216;-78
2021/03/09 02:53:41;;;;;;;57.23;24.40;;;5.40;99.90;;;;;;5015453;28;20723;-79
2021/03/09 02:56:09;;;;;;;55.73;25.10;;;5.30;99.90;;;;;;5013776;28;20293;-79
2021/03/09 02:58:39;;;;;;;51.90;24.10;;;5.30;99.90;;;;;;5014264;28;20204;-79
2021/03/09 03:01:07;;;;;;;55.40;24.27;;;5.40;99.90;;;;;;5012709;28;20203;-79
2021/03/09 03:03:35;;;;;;;57.93;23.23;;;5.40;99.90;;;;;;5014345;28;20318;-79
2021/03/09 03:06:03;;;;;;;63.67;25.47;;;5.40;99.90;;;;;;5014533;28;20248;-79
2021/03/09 03:08:30;;;;;;;53.57;23.33;;;5.40;99.90;;;;;;5014208;28;20240;-79
2021/03/09 03:10:57;;;;;;;55.97;24.23;;;5.40;99.90;;;;;;5013568;28;20217;-79
2021/03/09 03:13:25;;;;;;;57.53;25.17;;;5.40;99.90;;;;;;5012713;28;20536;-79
2021/03/09 03:15:53;;;;;;;55.33;24.13;;;5.40;99.90;;;;;;5014817;28;20210;-79
2021/03/09 03:18:21;;;;;;;53.23;24.23;;;5.40;99.90;;;;;;5014673;28;20203;-79
2021/03/09 03:20:49;;;;;;;55.70;24.77;;;5.40;99.90;;;;;;5015148;28;20624;-78
2021/03/09 03:23:16;;;;;;;61.07;25.00;;;5.40;99.90;;;;;;5013704;28;20224;-78
2021/03/09 03:25:46;;;;;;;60.87;24.67;;;5.40;99.90;;;;;;5013428;28;20721;-79
2021/03/09 03:28:14;;;;;;;53.80;24.27;;;5.40;99.90;;;;;;5012510;28;20197;-78
2021/03/09 03:30:40;;;;;;;56.07;24.90;;;5.50;99.90;;;;;;5012274;28;20298;-79
2021/03/09 03:33:07;;;;;;;53.13;24.10;;;5.50;99.90;;;;;;5017024;28;20292;-79
2021/03/09 03:35:34;;;;;;;54.77;24.40;;;5.40;99.90;;;;;;5014035;28;20201;-79
2021/03/09 03:38:03;;;;;;;53.80;24.07;;;5.50;99.90;;;;;;5015152;28;20259;-79
2021/03/09 03:40:30;;;;;;;51.40;23.77;;;5.40;99.90;;;;;;5012837;28;20592;-79
2021/03/09 03:42:57;;;;;;;55.33;22.97;;;5.40;99.90;;;;;;5013342;28;20230;-78
2021/03/09 03:45:24;;;;;;;56.77;23.73;;;5.40;99.90;;;;;;5017001;28;20246;-78
2021/03/09 03:47:56;;;;;;;56.60;25.40;;;5.40;99.90;;;;;;5032264;28;20225;-79
2021/03/09 03:50:24;;;;;;;53.47;23.47;;;5.40;99.90;;;;;;5031828;28;20202;-78
2021/03/09 03:53:02;;;;;;;54.27;24.27;;;5.50;99.90;;;;;;5031930;28;20231;-78
2021/03/09 03:55:45;;;;;;;53.93;24.17;;;5.50;99.90;;;;;;5032061;28;20298;-78
2021/03/09 03:58:21;;;;;;;52.13;24.40;;;5.40;99.90;;;;;;5031755;28;20231;-78
2021/03/09 04:00:49;;;;;;;55.67;22.87;;;5.30;99.90;;;;;;5031985;28;20205;-78
2021/03/09 04:03:16;;;;;;;55.63;23.07;;;5.30;99.90;;;;;;5034653;28;20230;-78
2021/03/09 04:05:45;;;;;;;55.67;25.07;;;5.30;99.90;;;;;;5035407;28;20659;-78
2021/03/09 04:08:13;;;;;;;63.00;24.90;;;5.30;99.90;;;;;;5035757;28;20575;-79
2021/03/09 04:10:42;;;;;;;52.40;23.00;;;5.30;99.90;;;;;;5035262;28;20206;-78
2021/03/09 04:13:08;;;;;;;55.93;23.90;;;5.30;99.90;;;;;;5035856;28;20200;-78
2021/03/09 04:15:36;;;;;;;51.93;22.97;;;5.30;99.90;;;;;;5035501;28;20234;-78
2021/03/09 04:18:06;;;;;;;51.53;22.93;;;5.30;99.90;;;;;;5035535;28;20244;-78
2021/03/09 04:20:34;;;;;;;59.00;23.60;;;5.40;99.90;;;;;;5035419;28;20296;-78
2021/03/09 04:23:01;;;;;;;53.27;23.00;;;5.40;99.90;;;;;;5035620;28;20638;-78
2021/03/09 04:25:29;;;;;;;53.73;22.87;;;5.30;99.90;;;;;;5035414;28;20202;-78
2021/03/09 04:27:57;;;;;;;46.77;21.03;;;5.30;99.90;;;;;;5035467;28;20293;-78
2021/03/09 04:30:24;;;;;;;50.60;22.43;;;5.30;99.90;;;;;;5035654;28;20202;-78
2021/03/09 04:32:51;;;;;;;57.13;22.77;;;5.30;99.90;;;;;;5035074;28;20208;-78
2021/03/09 04:35:18;;;;;;;49.93;21.43;;;5.20;99.90;;;;;;5035414;28;20571;-78
2021/03/09 04:37:45;;;;;;;48.63;21.97;;;5.20;99.90;;;;;;5034879;28;20302;-78
2021/03/09 04:40:13;;;;;;;51.57;22.03;;;5.30;99.90;;;;;;5035241;28;20245;-78
2021/03/09 04:42:39;;;;;;;51.47;22.60;;;5.30;99.90;;;;;;5034888;28;20205;-78
2021/03/09 04:45:08;;;;;;;55.27;22.23;;;5.30;99.90;;;;;;5034994;28;20233;-78
2021/03/09 04:47:35;;;;;;;49.37;22.07;;;5.30;99.90;;;;;;5035440;28;20292;-79
2021/03/09 04:50:01;;;;;;;48.73;22.57;;;5.20;99.90;;;;;;5034872;28;20201;-78
2021/03/09 04:52:28;;;;;;;52.43;23.27;;;5.30;99.90;;;;;;5034866;28;20214;-78
2021/03/09 04:54:55;;;;;;;49.00;22.20;;;5.30;99.90;;;;;;5034585;28;20714;-79
2021/03/09 04:57:36;;;;;;;46.43;21.90;;;5.30;99.90;;;;;;5034813;28;20607;-78
2021/03/09 05:00:03;;;;;;;50.47;22.87;;;5.30;99.90;;;;;;5034278;28;20584;-79
2021/03/09 05:02:30;;;;;;;48.67;22.33;;;5.40;99.90;;;;;;5034857;28;20202;-78
2021/03/09 05:04:57;;;;;;;52.27;22.67;;;5.40;99.90;;;;;;5034304;28;20230;-79
2021/03/09 05:07:23;;;;;;;52.13;22.57;;;5.40;99.90;;;;;;5034515;28;20198;-79
2021/03/09 05:09:49;;;;;;;54.80;23.00;;;5.40;99.90;;;;;;5034820;28;20293;-79
2021/03/09 05:12:16;;;;;;;55.43;22.80;;;5.40;99.90;;;;;;5034516;28;20206;-78
2021/03/09 05:14:42;;;;;;;51.43;22.80;;;5.40;99.90;;;;;;5033768;28;20248;-78
2021/03/09 05:17:08;;;;;;;49.23;22.47;;;5.40;99.90;;;;;;5034285;28;20561;-79
2021/03/09 05:19:36;;;;;;;51.00;21.93;;;5.40;99.90;;;;;;5034107;28;20211;-78
2021/03/09 05:22:02;;;;;;;57.17;27.42;;;5.30;99.90;;;;;;5033813;28;20524;-78
2021/03/09 05:24:29;;;;;;;50.20;24.03;;;5.40;99.90;;;;;;5032137;28;20305;-78
2021/03/09 05:26:55;;;;;;;50.53;21.93;;;5.40;99.90;;;;;;5032884;28;20285;-78
2021/03/09 05:29:22;;;;;;;50.37;22.33;;;5.40;99.90;;;;;;5031193;28;20295;-78
2021/03/09 05:31:48;;;;;;;50.83;21.90;;;5.40;99.90;;;;;;5033802;28;20849;-79
2021/03/09 05:34:15;;;;;;;47.03;21.70;;;5.40;99.90;;;;;;5033877;28;20212;-79
2021/03/09 05:36:42;;;;;;;56.00;23.80;;;5.40;99.90;;;;;;5034331;28;20262;-79
2021/03/09 05:39:09;;;;;;;54.93;23.67;;;5.40;99.90;;;;;;5034159;28;20562;-79
2021/03/09 05:41:35;;;;;;;48.57;21.97;;;5.40;99.90;;;;;;5033248;28;20260;-78
2021/03/09 05:44:03;;;;;;;51.30;22.90;;;5.40;99.90;;;;;;5034043;28;20222;-79
2021/03/09 05:46:29;;;;;;;53.03;23.37;;;5.40;99.90;;;;;;5033670;28;20285;-79
2021/03/09 05:48:55;;;;;;;54.63;23.63;;;5.40;99.90;;;;;;5033469;28;20207;-78
2021/03/09 05:51:22;;;;;;;50.57;22.57;;;5.40;99.90;;;;;;5047445;28;20255;-79
2021/03/09 05:53:49;;;;;;;53.93;22.27;;;5.40;99.90;;;;;;5033287;28;20300;-78
2021/03/09 05:56:16;;;;;;;50.77;22.27;;;5.40;99.90;;;;;;5032732;28;20282;-79
2021/03/09 05:58:43;;;;;;;47.80;22.27;;;5.40;99.90;;;;;;5033551;28;20200;-78
2021/03/09 06:01:10;;;;;;;59.40;22.97;;;5.50;99.90;;;;;;5033725;28;20210;-78
2021/03/09 06:03:37;;;;;;;54.60;21.77;;;5.50;99.90;;;;;;5033204;28;20320;-78
2021/03/09 06:06:03;;;;;;;49.73;22.97;;;5.50;99.90;;;;;;5033815;28;20292;-79
2021/03/09 06:08:30;;;;;;;49.17;22.40;;;5.50;99.90;;;;;;5033389;28;20296;-78
2021/03/09 06:13:48;;;;;;;52.83;27.17;;;5.40;99.90;;;;;;5124513;27;768279;-78
2021/03/09 06:16:15;;;;;;;52.17;23.47;;;5.60;99.90;;;;;;5110730;28;20284;-76
2021/03/09 06:18:52;;;;;;;50.10;23.37;;;5.60;99.90;;;;;;5122014;28;20232;-77
2021/03/09 06:21:18;;;;;;;47.27;21.93;;;5.60;99.90;;;;;;5127248;28;20187;-77
2021/03/09 06:23:45;;;;;;;47.70;23.20;;;5.60;99.90;;;;;;5126547;28;20190;-78
2021/03/09 06:26:35;;;;;;;49.27;23.00;;;5.70;99.90;;;;;;5129958;28;20279;-77
2021/03/09 06:29:10;;;;;;;53.10;23.13;;;5.60;99.90;;;;;;5127467;28;20203;-77
2021/03/09 06:31:36;;;;;;;50.27;23.20;;;5.60;99.90;;;;;;5127956;28;20190;-77
2021/03/09 06:34:26;;;;;;;54.53;23.27;;;5.60;99.90;;;;;;5130643;28;20288;-77
2021/03/09 06:37:07;;;;;;;50.77;23.23;;;5.60;99.90;;;;;;5119658;28;20263;-77
2021/03/09 06:39:54;;;;;;;49.17;22.93;;;5.70;99.90;;;;;;5127412;28;20199;-78
2021/03/09 06:42:27;;;;;;;52.60;23.23;;;5.70;99.90;;;;;;5125963;28;20727;-78
2021/03/09 06:44:57;;;;;;;53.53;24.30;;;5.80;99.90;;;;;;5128426;28;20589;-77
2021/03/09 06:47:38;;;;;;;51.97;24.20;;;5.80;99.90;;;;;;5127977;28;20278;-78
2021/03/09 06:50:06;;;;;;;53.77;23.53;;;5.80;99.90;;;;;;5127690;28;20225;-78
2021/03/09 06:52:33;;;;;;;55.00;24.27;;;5.80;99.90;;;;;;5129163;28;20218;-78
2021/03/09 06:55:00;;;;;;;59.83;24.33;;;5.80;99.90;;;;;;5129884;28;20278;-77
2021/03/09 06:57:26;;;;;;;56.67;24.80;;;5.80;99.90;;;;;;5130547;28;20197;-77
2021/03/09 06:59:55;;;;;;;56.70;25.23;;;5.80;99.90;;;;;;5129516;28;20294;-77
2021/03/09 07:02:22;;;;;;;53.23;24.23;;;5.90;99.90;;;;;;5130443;28;20604;-77
2021/03/09 07:04:49;;;;;;;53.77;24.60;;;6.00;99.90;;;;;;5130205;28;20235;-77
2021/03/09 07:07:22;;;;;;;53.17;24.03;;;6.00;99.90;;;;;;5115063;28;20724;-77
2021/03/09 07:09:56;;;;;;;57.13;24.87;;;6.10;99.90;;;;;;5114169;28;20637;-77
2021/03/09 07:12:23;;;;;;;54.60;24.63;;;6.10;99.90;;;;;;5128062;28;20291;-77
2021/03/09 07:14:51;;;;;;;51.43;24.67;;;6.10;99.90;;;;;;5129801;28;20198;-77
2021/03/09 07:17:22;;;;;;;51.50;25.03;;;6.10;99.90;;;;;;5111224;28;20687;-77
2021/03/09 07:19:49;;;;;;;56.40;24.57;;;6.10;99.90;;;;;;5109411;28;20271;-77
2021/03/09 07:22:18;;;;;;;54.87;24.70;;;6.20;99.90;;;;;;5108838;28;20227;-77
2021/03/09 07:24:53;;;;;;;57.03;25.57;;;6.30;99.90;;;;;;5098008;28;20197;-77
2021/03/09 07:27:27;;;;;;;48.17;23.73;;;6.30;99.90;;;;;;5096163;28;20188;-76
2021/03/09 07:29:57;;;;;;;52.70;25.20;;;6.40;99.90;;;;;;5095908;28;20280;-76
2021/03/09 07:32:29;;;;;;;56.53;25.33;;;6.50;99.90;;;;;;5096026;28;20209;-77
2021/03/09 07:34:57;;;;;;;55.30;25.73;;;6.50;99.90;;;;;;5095934;28;20542;-76
2021/03/09 07:37:24;;;;;;;52.73;24.57;;;6.50;99.90;;;;;;5096394;28;20203;-78
2021/03/09 07:39:51;;;;;;;52.90;24.93;;;6.50;99.90;;;;;;5109666;28;20244;-78
2021/03/09 07:42:18;;;;;;;55.20;25.43;;;6.60;99.90;;;;;;5104117;28;20196;-78
2021/03/09 07:44:47;;;;;;;57.87;25.90;;;6.70;99.90;;;;;;5106588;28;20284;-77
2021/03/09 07:47:15;;;;;;;57.17;25.07;;;6.70;99.90;;;;;;5104077;28;20549;-76
2021/03/09 07:49:43;;;;;;;58.90;25.90;;;6.70;99.90;;;;;;5106137;28;20255;-76
2021/03/09 07:52:15;;;;;;;54.77;25.57;;;6.70;99.90;;;;;;5106259;28;20213;-78
2021/03/09 07:55:15;;;;;;;50.37;24.90;;;6.70;99.90;;;;;;5105178;28;20199;-76
2021/03/09 07:57:42;;;;;;;54.60;25.90;;;6.80;99.90;;;;;;5105311;28;20199;-77
2021/03/09 08:00:11;;;;;;;54.07;26.40;;;6.90;99.90;;;;;;5105737;28;20197;-78
2021/03/09 08:02:49;;;;;;;57.43;26.70;;;7.10;99.90;;;;;;5104178;28;20195;-78
2021/03/09 08:05:19;;;;;;;58.90;26.20;;;7.10;99.90;;;;;;5104632;28;20258;-78
2021/03/09 08:07:58;;;;;;;57.33;26.43;;;7.00;99.90;;;;;;5105358;28;20196;-77
2021/03/09 08:10:40;;;;;;;59.37;26.43;;;7.10;99.90;;;;;;5102423;28;20273;-77
2021/03/09 08:13:23;;;;;;;54.20;26.53;;;7.10;99.90;;;;;;5105002;28;20220;-77
2021/03/09 08:15:50;;;;;;;58.63;26.77;;;7.10;99.90;;;;;;5105320;28;20598;-77
2021/03/09 08:18:42;;;;;;;58.20;26.77;;;7.10;99.90;;;;;;5103165;28;20227;-77
2021/03/09 08:21:09;;;;;;;52.87;26.43;;;7.30;99.90;;;;;;5107824;28;20195;-78
2021/03/09 08:23:55;;;;;;;55.30;26.03;;;7.40;99.90;;;;;;5103846;28;20199;-76
2021/03/09 08:26:47;;;;;;;50.70;25.77;;;7.40;99.90;;;;;;5105015;28;20188;-77
2021/03/09 08:29:36;;;;;;;56.13;26.00;;;7.40;99.90;;;;;;5104688;28;20213;-77
2021/03/09 08:32:27;;;;;;;61.37;26.73;;;7.50;99.90;;;;;;5102770;28;20199;-78
2021/03/09 08:35:38;;;;;;;52.13;25.87;;;7.70;99.90;;;;;;5104049;28;20216;-76
2021/03/09 08:38:20;;;;;;;54.40;26.37;;;7.70;99.90;;;;;;5103415;28;20232;-78
2021/03/09 08:41:08;;;;;;;58.77;26.20;;;7.70;99.90;;;;;;5102557;28;20210;-78
2021/03/09 08:43:35;;;;;;;55.43;26.13;;;7.70;99.90;;;;;;5104241;28;20230;-77
2021/03/09 08:46:03;;;;;;;62.60;25.57;;;7.70;99.90;;;;;;5102599;28;20651;-77
2021/03/09 08:48:43;;;;;;;54.43;26.33;;;7.70;99.90;;;;;;5102576;28;20734;-77
2021/03/09 08:51:50;;;;;;;49.57;24.53;;;7.70;99.90;;;;;;5102924;28;20192;-78
2021/03/09 08:54:33;;;;;;;57.43;26.17;;;7.60;99.90;;;;;;5100748;28;20184;-78
2021/03/09 08:57:02;;;;;;;57.57;26.63;;;7.60;99.90;;;;;;5104448;28;20661;-76
2021/03/09 08:59:31;;;;;;;60.27;27.87;;;7.60;99.90;;;;;;5108436;28;20282;-78
2021/03/09 09:02:09;;;;;;;58.10;28.30;;;7.60;99.90;;;;;;5098165;28;20223;-77
2021/03/09 09:04:37;;;;;;;58.67;27.70;;;7.60;99.90;;;;;;5093022;28;20204;-76
2021/03/09 09:07:23;;;;;;;61.13;28.40;;;7.60;99.90;;;;;;5097358;28;20195;-77
2021/03/09 09:09:52;;;;;;;59.47;26.87;;;7.80;99.90;;;;;;5100534;28;20202;-77
2021/03/09 09:12:20;;;;;;;61.73;28.93;;;7.90;99.90;;;;;;5103191;28;20215;-77
2021/03/09 09:14:47;;;;;;;64.47;29.43;;;7.90;99.90;;;;;;5102924;28;20487;-76
2021/03/09 09:17:13;;;;;;;65.27;29.43;;;7.90;99.90;;;;;;5098335;28;20226;-78
2021/03/09 09:19:40;;;;;;;56.87;27.17;;;7.80;99.90;;;;;;5103641;28;20227;-76
2021/03/09 09:22:06;;;;;;;53.10;26.67;;;7.80;99.90;;;;;;5102358;28;20191;-77
2021/03/09 09:24:33;;;;;;;63.47;29.27;;;7.80;99.90;;;;;;5104200;28;20231;-77
2021/03/09 09:27:03;;;;;;;63.30;29.40;;;8.00;99.90;;;;;;5105232;28;20213;-76
2021/03/09 09:29:30;;;;;;;62.03;28.93;;;8.10;99.90;;;;;;5106008;28;20192;-76
2021/03/09 09:31:58;;;;;;;62.83;29.77;;;8.30;99.90;;;;;;5097173;28;20257;-77
2021/03/09 09:34:35;;;;;;;60.90;28.93;;;8.50;99.90;;;;;;5100548;28;20203;-77
2021/03/09 09:37:15;;;;;;;60.27;27.87;;;8.70;99.90;;;;;;5103614;28;20221;-78
2021/03/09 09:39:42;;;;;;;55.67;28.13;;;8.70;99.90;;;;;;5101432;28;20277;-78
2021/03/09 09:42:17;;;;;;;56.77;29.60;;;8.60;99.90;;;;;;5102736;28;20287;-78
2021/03/09 09:44:44;;;;;;;59.93;28.27;;;8.60;99.90;;;;;;5103301;28;20192;-77
2021/03/09 09:47:11;;;;;;;59.40;28.77;;;8.50;99.90;;;;;;5101986;28;20202;-76
2021/03/09 09:49:39;;;;;;;56.63;29.53;;;8.40;99.90;;;;;;5102588;28;20203;-78
2021/03/09 09:52:13;;;;;;;58.50;29.43;;;8.50;99.90;;;;;;5104243;28;20212;-78
2021/03/09 09:54:40;;;;;;;56.43;29.50;;;8.50;99.90;;;;;;5103787;28;20199;-78
2021/03/09 09:57:10;;;;;;;61.63;30.57;;;8.50;99.90;;;;;;5102581;28;20216;-77
2021/03/09 09:59:38;;;;;;;67.80;33.27;;;8.50;99.90;;;;;;5101102;28;20200;-77
2021/03/09 10:02:22;;;;;;;59.93;31.33;;;8.70;99.90;;;;;;5102519;28;20282;-78
2021/03/09 10:04:48;;;;;;;64.40;32.07;;;8.90;99.90;;;;;;5102805;28;20216;-79
2021/03/09 10:07:17;;;;;;;60.23;30.47;;;9.10;99.90;;;;;;5101231;28;20196;-77
2021/03/09 10:10:01;;;;;;;56.83;30.80;;;9.20;99.90;;;;;;5102634;28;20279;-77
2021/03/09 10:12:35;;;;;;;61.47;30.97;;;9.30;99.90;;;;;;5103164;28;20247;-78
2021/03/09 10:15:06;;;;;;;50.87;27.83;;;9.40;99.90;;;;;;5102178;28;20199;-76
2021/03/09 10:17:32;;;;;;;52.80;27.70;;;9.50;99.90;;;;;;5093036;28;20269;-78
2021/03/09 10:19:59;;;;;;;47.00;26.70;;;9.60;99.90;;;;;;5108289;28;20287;-76
2021/03/09 10:22:27;;;;;;;53.17;27.67;;;9.50;99.90;;;;;;5098218;28;20226;-77
2021/03/09 10:25:06;;;;;;;47.83;27.43;;;9.50;99.90;;;;;;5094835;28;20198;-76
2021/03/09 10:27:33;;;;;;;47.17;27.87;;;9.40;99.90;;;;;;5092420;28;20273;-77
2021/03/09 10:29:59;;;;;;;48.53;27.63;;;9.20;99.90;;;;;;5094051;28;20275;-76
2021/03/09 10:32:27;;;;;;;55.37;28.63;;;9.00;99.90;;;;;;5101812;28;20217;-76
2021/03/09 10:34:55;;;;;;;57.93;30.67;;;8.80;99.90;;;;;;5102119;28;20277;-77
2021/03/09 10:37:33;;;;;;;55.73;31.77;;;8.70;99.90;;;;;;5100286;28;20223;-77
2021/03/09 10:40:00;;;;;;;59.00;31.33;;;8.90;99.90;;;;;;5103164;28;20274;-77
2021/03/09 10:42:28;;;;;;;69.23;33.27;;;9.40;99.90;;;;;;5102049;28;20278;-76
2021/03/09 10:44:55;;;;;;;60.50;31.80;;;9.80;99.90;;;;;;5100940;28;20219;-76
2021/03/09 10:47:22;;;;;;;56.57;31.57;;;9.90;99.90;;;;;;5094050;28;20204;-78
2021/03/09 10:49:49;;;;;;;59.90;31.37;;;9.80;99.90;;;;;;5106756;28;20196;-77
2021/03/09 10:52:15;;;;;;;57.10;31.40;;;10.00;99.90;;;;;;5111438;28;20265;-78
2021/03/09 10:54:42;;;;;;;54.77;31.03;;;10.00;99.90;;;;;;5113011;28;20204;-77
2021/03/09 10:57:10;;;;;;;52.67;29.33;;;10.10;99.90;;;;;;5107309;28;20279;-77
2021/03/09 10:59:37;;;;;;;57.43;30.83;;;10.20;99.90;;;;;;5116810;28;20213;-76
2021/03/09 11:02:06;;;;;;;54.13;29.63;;;10.20;99.90;;;;;;5118059;28;20275;-77
2021/03/09 11:04:33;;;;;;;55.23;29.87;;;10.00;99.90;;;;;;5117517;28;20210;-77
2021/03/09 11:07:00;;;;;;;57.57;30.73;;;9.80;99.90;;;;;;5114800;28;20197;-80
2021/03/09 11:09:26;;;;;;;62.50;32.93;;;9.80;99.90;;;;;;5114364;28;20203;-78
2021/03/09 11:11:53;;;;;;;55.97;31.40;;;9.60;99.90;;;;;;5102094;28;20287;-76
2021/03/09 11:14:20;;;;;;;60.97;31.63;;;9.50;99.90;;;;;;5094813;28;20622;-77
2021/03/09 11:16:46;;;;;;;61.00;31.23;;;9.40;99.90;;;;;;5105739;28;20197;-76
2021/03/09 11:19:12;;;;;;;64.93;32.33;;;9.10;99.90;;;;;;5102479;28;20325;-77
2021/03/09 11:21:39;;;;;;;58.20;31.53;;;9.10;99.90;;;;;;5116939;28;20286;-77
2021/03/09 11:24:07;;;;;;;63.30;31.03;;;8.90;99.90;;;;;;5116583;28;20287;-77
2021/03/09 11:26:34;;;;;;;60.30;31.63;;;8.60;99.90;;;;;;5107279;28;20278;-77
2021/03/09 11:29:00;;;;;;;66.47;33.03;;;8.60;99.90;;;;;;5106753;28;20235;-77
2021/03/09 11:31:26;;;;;;;64.97;33.20;;;8.50;99.90;;;;;;5104485;28;20189;-78
2021/03/09 11:33:53;;;;;;;62.90;32.37;;;8.50;99.90;;;;;;5105714;28;20220;-77
2021/03/09 11:36:20;;;;;;;60.73;31.27;;;8.60;99.90;;;;;;5104627;28;20210;-78
2021/03/09 11:38:47;;;;;;;57.17;31.17;;;8.60;99.90;;;;;;5095362;28;20288;-78
2021/03/09 11:41:17;;;;;;;59.83;30.77;;;8.70;99.90;;;;;;5106180;28;20314;-78
2021/03/09 11:43:44;;;;;;;60.03;30.10;;;8.70;99.90;;;;;;5115233;28;20214;-78
2021/03/09 11:46:10;;;;;;;53.27;28.43;;;8.90;99.90;;;;;;5115475;28;20283;-79
2021/03/09 11:48:37;;;;;;;55.43;27.50;;;9.00;99.90;;;;;;5115511;28;20292;-79
2021/03/09 11:51:04;;;;;;;42.33;25.63;;;9.20;99.90;;;;;;5115592;28;20297;-78
2021/03/09 11:53:31;;;;;;;44.80;24.73;;;9.30;99.90;;;;;;5114791;28;20300;-78
2021/03/09 11:55:57;;;;;;;42.00;23.93;;;9.40;99.90;;;;;;5093921;28;20267;-79
2021/03/09 11:58:25;;;;;;;40.57;23.53;;;9.60;99.90;;;;;;5102456;28;20201;-77
2021/03/09 12:00:52;;;;;;;39.83;22.17;;;9.90;99.90;;;;;;5098820;28;20193;-76
2021/03/09 12:03:18;;;;;;;36.87;22.13;;;10.10;99.90;;;;;;5104872;28;20199;-77
2021/03/09 12:05:44;;;;;;;36.53;23.07;;;10.30;99.90;;;;;;5102224;28;20201;-78
2021/03/09 12:08:11;;;;;;;33.03;20.43;;;10.60;99.90;;;;;;5103846;28;20623;-78
2021/03/09 12:10:38;;;;;;;33.30;19.67;;;11.10;99.90;;;;;;5101701;28;20224;-77
2021/03/09 12:13:04;;;;;;;30.63;19.83;;;10.90;99.90;;;;;;5101554;28;20649;-77
2021/03/09 12:15:32;;;;;;;31.80;19.17;;;11.00;99.90;;;;;;5114098;28;20193;-80
2021/03/09 12:17:58;;;;;;;27.17;16.63;;;11.00;99.90;;;;;;5110387;28;20646;-78
2021/03/09 12:20:25;;;;;;;24.20;16.10;;;11.20;99.90;;;;;;5096933;28;20225;-79
2021/03/09 12:22:52;;;;;;;25.53;16.40;;;11.50;99.90;;;;;;5108607;28;20198;-77
2021/03/09 12:25:19;;;;;;;24.10;14.70;;;11.50;99.90;;;;;;5102808;28;20248;-78
2021/03/09 12:27:45;;;;;;;19.13;13.63;;;11.00;99.90;;;;;;5104324;28;20275;-78
2021/03/09 12:30:13;;;;;;;17.77;11.87;;;10.70;99.90;;;;;;5103682;28;20204;-79
2021/03/09 12:32:40;;;;;;;17.70;11.67;;;10.10;99.90;;;;;;5102709;28;20208;-77
2021/03/09 12:35:09;;;;;;;18.20;12.07;;;9.70;99.90;;;;;;5103159;28;20191;-77
2021/03/09 12:37:35;;;;;;;20.07;13.67;;;9.60;99.90;;;;;;5102630;28;20199;-79
2021/03/09 12:40:02;;;;;;;24.77;14.33;;;9.70;99.90;;;;;;5101943;28;20201;-78
2021/03/09 12:42:28;;;;;;;21.20;13.50;;;9.60;99.90;;;;;;5104473;28;20228;-79
2021/03/09 12:44:55;;;;;;;22.77;13.77;;;9.30;99.90;;;;;;5104333;28;20189;-78
2021/03/09 12:47:21;;;;;;;23.60;14.70;;;9.20;99.90;;;;;;5102248;28;21039;-80
2021/03/09 12:49:49;;;;;;;27.43;15.53;;;9.20;99.90;;;;;;5103668;28;20205;-79